createdAt,value
2018-08-19T00:01:18.313Z,16.10
2018-08-19T00:03:49.017Z,16.80
2018-08-19T00:06:20.050Z,16.43
2018-08-19T00:08:51.158Z,19.83
2018-08-19T00:11:22.183Z,17.43
2018-08-19T00:13:53.428Z,16.80
2018-08-19T00:16:24.188Z,18.13
2018-08-19T00:18:55.008Z,17.47
2018-08-19T00:21:25.903Z,18.37
2018-08-19T00:23:57.055Z,18.77
2018-08-19T00:26:27.846Z,17.30
2018-08-19T00:28:58.535Z,18.47
2018-08-19T00:31:29.940Z,19.40
2018-08-19T00:34:00.064Z,17.13
2018-08-19T00:36:35.968Z,16.40
2018-08-19T00:39:09.097Z,15.63
2018-08-19T00:41:40.117Z,18.93
2018-08-19T00:44:11.198Z,20.07
2018-08-19T00:46:42.753Z,19.67
2018-08-19T00:49:13.773Z,18.70
2018-08-19T00:51:50.151Z,17.67
2018-08-19T00:54:21.601Z,16.30
2018-08-19T00:56:56.426Z,16.20
2018-08-19T00:59:28.968Z,17.23
2018-08-19T01:01:59.829Z,19.23
2018-08-19T01:04:30.944Z,16.83
2018-08-19T01:07:02.911Z,18.13
2018-08-19T01:09:33.965Z,17.50
2018-08-19T01:12:04.653Z,20.53
2018-08-19T01:14:36.268Z,17.87
2018-08-19T01:17:07.385Z,15.50
2018-08-19T01:19:39.003Z,16.47
2018-08-19T01:22:09.721Z,16.80
2018-08-19T01:24:40.514Z,17.20
2018-08-19T01:27:11.517Z,17.47
2018-08-19T01:29:54.077Z,17.30
2018-08-19T01:32:36.458Z,16.77
2018-08-19T01:35:07.506Z,17.07
2018-08-19T01:37:40.388Z,19.23
2018-08-19T01:40:16.284Z,17.57
2018-08-19T01:42:47.325Z,16.77
2018-08-19T01:45:17.689Z,17.53
2018-08-19T01:47:48.337Z,18.73
2018-08-19T01:50:18.953Z,18.83
2018-08-19T01:52:51.018Z,18.47
2018-08-19T01:55:22.581Z,21.53
2018-08-19T01:57:53.550Z,20.37
2018-08-19T02:00:23.504Z,19.10
2018-08-19T02:03:04.728Z,18.97
2018-08-19T02:05:35.681Z,18.80
2018-08-19T02:08:06.393Z,19.57
2018-08-19T02:10:37.379Z,17.40
2018-08-19T02:13:07.481Z,18.37
2018-08-19T02:15:38.129Z,18.70
2018-08-19T02:18:08.963Z,18.23
2018-08-19T02:20:42.020Z,19.63
2018-08-19T02:23:14.034Z,20.70
2018-08-19T02:25:48.190Z,20.50
2018-08-19T02:28:22.128Z,22.20
2018-08-19T02:30:57.468Z,22.33
2018-08-19T02:33:29.833Z,27.73
2018-08-19T02:36:08.860Z,23.27
2018-08-19T02:38:39.740Z,20.27
2018-08-19T02:41:10.644Z,22.13
2018-08-19T02:43:47.148Z,21.00
2018-08-19T02:46:18.620Z,25.47
2018-08-19T02:48:50.455Z,22.90
2018-08-19T02:51:21.822Z,22.33
2018-08-19T02:53:53.071Z,25.87
2018-08-19T02:56:23.956Z,22.63
2018-08-19T02:58:54.841Z,23.30
2018-08-19T03:01:25.673Z,24.93
2018-08-19T03:03:56.724Z,24.13
2018-08-19T03:06:27.614Z,27.70
2018-08-19T03:08:59.937Z,25.57
2018-08-19T03:11:30.532Z,23.40
2018-08-19T03:14:01.461Z,22.37
2018-08-19T03:16:34.087Z,33.03
2018-08-19T03:19:04.690Z,21.90
2018-08-19T03:21:35.657Z,22.70
2018-08-19T03:24:06.499Z,29.17
2018-08-19T03:26:37.897Z,24.00
2018-08-19T03:29:13.910Z,23.70
2018-08-19T03:31:47.791Z,23.23
2018-08-19T03:34:18.482Z,20.13
2018-08-19T03:36:49.078Z,20.47
2018-08-19T03:39:20.101Z,21.30
2018-08-19T03:41:50.914Z,20.00
2018-08-19T03:44:21.877Z,22.43
2018-08-19T03:46:51.936Z,20.50
2018-08-19T03:49:23.181Z,25.80
2018-08-19T03:51:54.013Z,20.80
2018-08-19T03:54:24.640Z,20.70
2018-08-19T03:56:55.149Z,22.17
2018-08-19T03:59:25.543Z,20.50
2018-08-19T04:01:56.035Z,19.80
2018-08-19T04:04:25.973Z,19.73
2018-08-19T04:06:55.917Z,18.60
2018-08-19T04:09:26.341Z,22.17
2018-08-19T04:12:08.767Z,20.67
2018-08-19T04:14:38.564Z,23.77
2018-08-19T04:17:09.465Z,24.53
2018-08-19T04:19:39.210Z,23.30
2018-08-19T04:22:09.065Z,22.17
2018-08-19T04:24:39.898Z,23.93
2018-08-19T04:27:11.998Z,21.47
2018-08-19T04:29:43.026Z,22.17
2018-08-19T04:32:19.524Z,22.73
2018-08-19T04:34:50.511Z,25.83
2018-08-19T04:37:21.613Z,23.10
2018-08-19T04:39:52.476Z,22.60
2018-08-19T04:42:23.194Z,21.13
2018-08-19T04:44:54.620Z,23.47
2018-08-19T04:47:31.310Z,22.40
2018-08-19T04:50:01.946Z,24.50
2018-08-19T04:52:34.033Z,20.63
2018-08-19T04:55:03.915Z,21.13
2018-08-19T04:57:34.842Z,21.40
2018-08-19T05:00:05.492Z,21.17
2018-08-19T05:02:36.445Z,18.70
2018-08-19T05:05:07.958Z,18.50
2018-08-19T05:07:38.144Z,19.73
2018-08-19T05:10:08.077Z,17.90
2018-08-19T05:12:37.958Z,17.20
2018-08-19T05:15:08.544Z,17.60
2018-08-19T05:17:39.294Z,16.27
2018-08-19T05:20:15.024Z,18.53
2018-08-19T05:22:45.880Z,15.87
2018-08-19T05:25:15.794Z,14.03
2018-08-19T05:27:47.556Z,15.57
2018-08-19T05:30:17.472Z,13.97
2018-08-19T05:32:52.810Z,12.60
2018-08-19T05:35:23.125Z,12.67
2018-08-19T05:37:53.845Z,12.17
2018-08-19T05:40:23.812Z,11.33
2018-08-19T05:42:53.923Z,11.87
2018-08-19T05:45:24.193Z,10.33
2018-08-19T05:48:05.578Z,14.90
2018-08-19T05:50:35.757Z,15.60
2018-08-19T05:53:06.592Z,9.77
2018-08-19T05:55:37.935Z,10.57
2018-08-19T05:58:08.850Z,12.10
2018-08-19T06:00:44.445Z,22.87
2018-08-19T06:03:15.305Z,18.90
2018-08-19T06:05:46.072Z,11.17
2018-08-19T06:08:17.363Z,15.67
2018-08-19T06:10:48.179Z,13.00
2018-08-19T06:13:18.574Z,10.73
2018-08-19T06:15:49.459Z,19.20
2018-08-19T06:18:20.011Z,14.33
2018-08-19T06:20:50.981Z,11.60
2018-08-19T06:23:22.767Z,10.13
2018-08-19T06:25:53.876Z,12.27
2018-08-19T06:28:24.360Z,11.13
2018-08-19T06:30:55.790Z,13.70
2018-08-19T06:33:26.554Z,9.60
2018-08-19T06:35:57.652Z,16.50
2018-08-19T06:38:28.746Z,10.43
2018-08-19T06:40:59.635Z,11.03
2018-08-19T06:43:30.498Z,11.93
2018-08-19T06:46:01.386Z,20.90
2018-08-19T06:48:32.557Z,20.83
2018-08-19T06:51:04.369Z,30.60
2018-08-19T06:53:35.295Z,18.10
2018-08-19T06:56:05.967Z,18.83
2018-08-19T06:58:36.708Z,41.03
2018-08-19T07:01:07.513Z,17.90
2018-08-19T07:03:42.212Z,12.53
2018-08-19T07:06:13.070Z,9.67
2018-08-19T07:08:43.257Z,11.13
2018-08-19T07:11:14.087Z,12.80
2018-08-19T07:13:44.707Z,15.63
2018-08-19T07:16:15.566Z,11.40
2018-08-19T07:18:45.586Z,10.03
2018-08-19T07:21:15.723Z,21.30
2018-08-19T07:23:47.221Z,8.77
2018-08-19T07:26:18.107Z,11.30
2018-08-19T07:28:48.888Z,8.33
2018-08-19T07:31:19.809Z,9.60
2018-08-19T07:33:50.864Z,10.60
2018-08-19T07:36:21.529Z,9.43
2018-08-19T07:38:51.948Z,12.50
2018-08-19T07:41:22.626Z,8.03
2018-08-19T07:43:53.470Z,8.47
2018-08-19T07:46:24.322Z,7.47
2018-08-19T07:48:55.033Z,7.33
2018-08-19T07:51:25.913Z,12.50
2018-08-19T07:53:57.223Z,7.73
2018-08-19T07:56:27.545Z,8.63
2018-08-19T07:59:15.166Z,7.93
2018-08-19T08:01:47.012Z,8.20
2018-08-19T08:04:18.087Z,7.83
2018-08-19T08:06:49.910Z,7.93
2018-08-19T08:09:19.844Z,8.50
2018-08-19T08:11:50.545Z,7.53
2018-08-19T08:14:21.405Z,7.47
2018-08-19T08:16:54.909Z,6.90
2018-08-19T08:19:26.109Z,7.43
2018-08-19T08:22:03.385Z,7.17
2018-08-19T08:24:34.237Z,7.30
2018-08-19T08:27:07.574Z,7.03
2018-08-19T08:29:38.567Z,13.87
2018-08-19T08:32:09.330Z,11.10
2018-08-19T08:34:40.076Z,7.10
2018-08-19T08:37:12.964Z,7.50
2018-08-19T08:39:43.974Z,6.80
2018-08-19T08:42:14.523Z,6.70
2018-08-19T08:44:45.642Z,7.57
2018-08-19T08:47:16.487Z,5.87
2018-08-19T08:49:47.160Z,6.53
2018-08-19T08:52:24.520Z,5.70
2018-08-19T08:54:58.185Z,6.53
2018-08-19T08:57:28.997Z,6.37
2018-08-19T09:00:00.439Z,5.97
2018-08-19T09:02:31.246Z,6.63
2018-08-19T09:05:02.634Z,6.73
2018-08-19T09:07:33.519Z,5.03
2018-08-19T09:10:04.825Z,6.50
2018-08-19T09:12:45.383Z,5.17
2018-08-19T09:15:16.454Z,5.77
2018-08-19T09:17:47.429Z,6.80
2018-08-19T09:20:18.457Z,4.60
2018-08-19T09:22:49.938Z,6.03
2018-08-19T09:25:20.220Z,8.60
2018-08-19T09:27:50.983Z,7.97
2018-08-19T09:30:31.562Z,5.78
2018-08-19T09:33:03.048Z,6.70
2018-08-19T09:35:35.375Z,4.97
2018-08-19T09:38:12.034Z,4.33
2018-08-19T09:40:42.207Z,5.00
2018-08-19T09:43:13.543Z,4.47
2018-08-19T09:45:44.628Z,9.38
2018-08-19T09:48:15.698Z,9.68
2018-08-19T09:50:46.371Z,9.55
2018-08-19T09:53:17.226Z,5.20
2018-08-19T09:56:20.088Z,4.60
2018-08-19T09:59:06.739Z,4.35
2018-08-19T10:01:40.922Z,5.12
2018-08-19T10:04:17.347Z,4.78
2018-08-19T10:06:50.578Z,6.65
2018-08-19T10:09:20.299Z,5.00
2018-08-19T10:11:50.504Z,4.25
2018-08-19T10:14:20.642Z,8.05
2018-08-19T10:16:50.795Z,5.22
2018-08-19T10:19:23.347Z,6.70
2018-08-19T10:21:53.215Z,6.10
2018-08-19T10:24:30.121Z,6.95
2018-08-19T10:27:00.671Z,5.12
2018-08-19T10:29:30.737Z,7.10
2018-08-19T10:32:02.576Z,5.33
2018-08-19T10:34:33.546Z,5.28
2018-08-19T10:37:03.948Z,7.35
2018-08-19T10:39:33.686Z,6.35
2018-08-19T10:42:19.449Z,4.10
2018-08-19T10:44:51.540Z,7.33
2018-08-19T10:47:21.888Z,5.95
2018-08-19T10:49:58.671Z,6.62
2018-08-19T10:52:30.380Z,4.00
2018-08-19T10:55:01.421Z,6.75
2018-08-19T10:57:31.461Z,8.30
2018-08-19T11:00:01.510Z,4.58
2018-08-19T11:02:31.594Z,5.85
2018-08-19T11:05:01.716Z,4.08
2018-08-19T11:07:31.666Z,5.05
2018-08-19T11:10:24.828Z,4.30
2018-08-19T11:12:57.681Z,5.87
2018-08-19T11:15:46.855Z,7.10
2018-08-19T11:18:23.656Z,4.33
2018-08-19T11:20:56.667Z,5.35
2018-08-19T11:23:27.538Z,4.62
2018-08-19T11:25:58.526Z,5.10
2018-08-19T11:28:38.820Z,4.28
2018-08-19T11:31:16.606Z,4.50
2018-08-19T11:33:46.778Z,6.00
2018-08-19T11:36:16.734Z,4.42
2018-08-19T11:38:52.437Z,3.98
2018-08-19T11:41:22.491Z,7.37
2018-08-19T11:43:52.738Z,6.58
2018-08-19T11:46:22.601Z,6.10
2018-08-19T11:48:57.964Z,8.93
2018-08-19T11:51:42.166Z,4.00
2018-08-19T11:54:13.951Z,6.97
2018-08-19T11:56:54.978Z,9.65
2018-08-19T11:59:30.844Z,5.15
2018-08-19T12:02:01.200Z,4.72
2018-08-19T12:04:31.302Z,7.53
2018-08-19T12:07:01.515Z,8.18
2018-08-19T12:09:31.501Z,6.15
2018-08-19T12:12:01.528Z,6.40
2018-08-19T12:14:36.367Z,5.08
2018-08-19T12:17:09.765Z,6.95
2018-08-19T12:19:42.619Z,5.78
2018-08-19T12:22:12.549Z,11.97
2018-08-19T12:24:45.502Z,6.37
2018-08-19T12:27:16.802Z,5.83
2018-08-19T12:29:47.451Z,6.35
2018-08-19T12:32:23.182Z,7.87
2018-08-19T12:34:54.167Z,4.95
2018-08-19T12:37:25.077Z,6.90
2018-08-19T12:39:55.649Z,5.08
2018-08-19T12:42:25.934Z,4.70
2018-08-19T12:45:01.516Z,5.47
2018-08-19T12:47:31.493Z,7.85
2018-08-19T12:50:04.471Z,8.00
2018-08-19T12:52:34.925Z,9.20
2018-08-19T12:55:10.318Z,7.03
2018-08-19T12:57:41.197Z,4.95
2018-08-19T13:00:20.524Z,10.68
2018-08-19T13:02:51.993Z,20.50
2018-08-19T13:05:22.327Z,28.07
2018-08-19T13:07:52.380Z,12.33
2018-08-19T13:10:22.701Z,13.85
2018-08-19T13:12:57.049Z,12.10
2018-08-19T13:15:29.225Z,8.28
2018-08-19T13:17:59.314Z,11.20
2018-08-19T13:20:29.314Z,9.50
2018-08-19T13:23:02.406Z,9.20
2018-08-19T13:25:34.051Z,6.47
2018-08-19T13:28:05.183Z,7.23
2018-08-19T13:30:36.308Z,7.57
2018-08-19T13:33:07.141Z,7.43
2018-08-19T13:35:38.048Z,8.40
2018-08-19T13:38:08.920Z,6.70
2018-08-19T13:40:39.936Z,7.13
2018-08-19T13:43:10.980Z,6.90
2018-08-19T13:45:43.213Z,7.20
2018-08-19T13:48:13.961Z,7.30
2018-08-19T13:50:44.641Z,7.73
2018-08-19T13:53:15.157Z,8.70
2018-08-19T13:55:46.004Z,8.20
2018-08-19T13:58:16.863Z,7.80
2018-08-19T14:00:48.169Z,7.10
2018-08-19T14:03:19.338Z,9.50
2018-08-19T14:05:49.413Z,7.07
2018-08-19T14:08:20.172Z,7.70
2018-08-19T14:10:50.748Z,6.40
2018-08-19T14:13:21.267Z,6.37
2018-08-19T14:15:51.367Z,5.97
2018-08-19T14:18:22.259Z,9.73
2018-08-19T14:20:54.576Z,11.28
2018-08-19T14:23:26.136Z,8.00
2018-08-19T14:25:57.426Z,7.75
2018-08-19T14:28:28.635Z,7.70
2018-08-19T14:30:59.925Z,10.40
2018-08-19T14:33:31.188Z,7.33
2018-08-19T14:36:02.416Z,6.20
2018-08-19T14:38:33.540Z,6.20
2018-08-19T14:41:04.953Z,6.40
2018-08-19T14:43:45.210Z,6.12
2018-08-19T14:46:15.448Z,9.35
2018-08-19T14:48:45.850Z,6.70
2018-08-19T14:51:16.937Z,10.55
2018-08-19T14:53:48.981Z,9.70
2018-08-19T14:56:19.964Z,7.08
2018-08-19T14:58:50.617Z,8.15
2018-08-19T15:01:21.382Z,5.87
2018-08-19T15:03:57.337Z,8.13
2018-08-19T15:06:28.333Z,8.80
2018-08-19T15:08:59.234Z,7.42
2018-08-19T15:11:30.091Z,5.67
2018-08-19T15:14:05.462Z,4.80
2018-08-19T15:16:36.346Z,7.10
2018-08-19T15:19:07.104Z,6.13
2018-08-19T15:21:38.848Z,5.03
2018-08-19T15:24:10.153Z,5.80
2018-08-19T15:26:41.245Z,4.93
2018-08-19T15:29:17.104Z,6.67
2018-08-19T15:31:48.839Z,5.67
2018-08-19T15:34:20.443Z,6.23
2018-08-19T15:36:51.339Z,5.93
2018-08-19T15:39:22.484Z,9.23
2018-08-19T15:41:53.352Z,7.00
2018-08-19T15:44:24.093Z,6.83
2018-08-19T15:46:55.599Z,9.33
2018-08-19T15:49:26.927Z,9.63
2018-08-19T15:51:57.695Z,5.60
2018-08-19T15:54:29.022Z,10.27
2018-08-19T15:57:03.132Z,5.23
2018-08-19T15:59:37.928Z,6.33
2018-08-19T16:02:08.871Z,6.07
2018-08-19T16:04:39.952Z,5.90
2018-08-19T16:07:09.876Z,5.70
2018-08-19T16:09:40.166Z,7.73
2018-08-19T16:12:10.025Z,7.08
2018-08-19T16:14:39.839Z,5.42
2018-08-19T16:17:09.713Z,6.20
2018-08-19T16:19:39.629Z,5.55
2018-08-19T16:22:09.641Z,7.37
2018-08-19T16:24:39.607Z,6.60
2018-08-19T16:27:09.844Z,6.47
2018-08-19T16:29:39.725Z,9.07
2018-08-19T16:32:09.828Z,6.92
2018-08-19T16:34:39.626Z,9.93
2018-08-19T16:37:09.727Z,5.47
2018-08-19T16:39:39.714Z,6.60
2018-08-19T16:42:09.585Z,6.23
2018-08-19T16:44:39.918Z,6.70
2018-08-19T16:47:09.692Z,5.67
2018-08-19T16:49:39.440Z,6.93
2018-08-19T16:52:09.288Z,8.17
2018-08-19T16:54:39.108Z,7.47
2018-08-19T16:57:09.002Z,8.47
2018-08-19T16:59:38.738Z,7.40
2018-08-19T17:02:08.531Z,7.03
2018-08-19T17:04:38.979Z,6.80
2018-08-19T17:07:10.258Z,6.50
2018-08-19T17:09:40.473Z,7.90
2018-08-19T17:12:10.208Z,7.40
2018-08-19T17:14:40.044Z,7.00
2018-08-19T17:17:10.299Z,6.77
2018-08-19T17:19:41.340Z,7.30
2018-08-19T17:22:12.585Z,7.30
2018-08-19T17:24:42.651Z,7.97
2018-08-19T17:27:13.437Z,7.93
2018-08-19T17:29:43.350Z,7.40
2018-08-19T17:32:13.337Z,7.27
2018-08-19T17:34:43.209Z,7.97
2018-08-19T17:37:12.999Z,6.67
2018-08-19T17:39:43.367Z,7.17
2018-08-19T17:42:13.001Z,7.10
2018-08-19T17:44:42.799Z,11.53
2018-08-19T17:47:12.621Z,9.20
2018-08-19T17:49:42.526Z,9.17
2018-08-19T17:52:12.331Z,8.27
2018-08-19T17:54:42.290Z,11.47
2018-08-19T17:57:12.174Z,10.60
2018-08-19T17:59:42.058Z,8.97
2018-08-19T18:02:12.064Z,8.43
2018-08-19T18:04:48.301Z,9.00
2018-08-19T18:07:23.087Z,8.70
2018-08-19T18:09:57.801Z,8.70
2018-08-19T18:12:27.760Z,10.37
2018-08-19T18:14:57.865Z,12.63
2018-08-19T18:17:27.857Z,8.43
2018-08-19T18:19:57.849Z,9.23
2018-08-19T18:22:27.757Z,9.37
2018-08-19T18:25:03.141Z,9.37
2018-08-19T18:27:32.992Z,9.17
2018-08-19T18:30:04.173Z,9.67
2018-08-19T18:32:34.059Z,9.73
2018-08-19T18:35:05.064Z,11.13
2018-08-19T18:37:36.332Z,9.53
2018-08-19T18:40:07.388Z,10.20
2018-08-19T18:42:40.411Z,10.40
2018-08-19T18:45:12.488Z,10.53
2018-08-19T18:47:49.947Z,10.30
2018-08-19T18:50:24.150Z,9.80
2018-08-19T18:52:55.354Z,10.70
2018-08-19T18:55:26.244Z,10.37
2018-08-19T18:57:57.495Z,11.10
2018-08-19T19:00:28.247Z,11.57
2018-08-19T19:03:00.965Z,10.60
2018-08-19T19:05:40.733Z,10.43
2018-08-19T19:08:16.237Z,12.57
2018-08-19T19:11:19.861Z,12.60
2018-08-19T19:13:51.415Z,10.77
2018-08-19T19:16:41.196Z,12.10
2018-08-19T19:19:13.096Z,10.20
2018-08-19T19:21:49.499Z,10.43
2018-08-19T19:24:25.542Z,11.30
2018-08-19T19:26:56.837Z,11.60
2018-08-19T19:29:27.601Z,11.63
2018-08-19T19:31:59.547Z,13.13
2018-08-19T19:34:31.999Z,11.43
2018-08-19T19:37:02.228Z,11.87
2018-08-19T19:39:32.394Z,12.57
2018-08-19T19:42:09.988Z,11.93
2018-08-19T19:44:40.985Z,13.87
2018-08-19T19:47:11.352Z,12.53
2018-08-19T19:49:47.238Z,14.77
2018-08-19T19:52:17.172Z,13.43
2018-08-19T19:54:47.039Z,16.07
2018-08-19T19:57:17.165Z,17.57
2018-08-19T19:59:47.061Z,15.60
2018-08-19T20:02:22.996Z,14.40
2018-08-19T20:04:52.984Z,13.30
2018-08-19T20:07:23.044Z,14.13
2018-08-19T20:09:53.012Z,15.27
2018-08-19T20:12:29.892Z,13.67
2018-08-19T20:15:02.379Z,14.83
2018-08-19T20:17:33.117Z,13.70
2018-08-19T20:20:03.798Z,14.17
2018-08-19T20:22:34.893Z,14.47
2018-08-19T20:25:06.182Z,14.93
2018-08-19T20:27:37.626Z,15.00
2018-08-19T20:30:08.198Z,14.20
2018-08-19T20:32:39.064Z,15.20
2018-08-19T20:35:09.981Z,14.20
2018-08-19T20:37:40.635Z,14.43
2018-08-19T20:40:11.261Z,15.37
2018-08-19T20:42:42.902Z,17.27
2018-08-19T20:45:13.987Z,14.43
2018-08-19T20:47:45.164Z,19.07
2018-08-19T20:50:16.294Z,16.27
2018-08-19T20:52:48.001Z,15.50
2018-08-19T20:55:18.926Z,14.03
2018-08-19T20:57:49.881Z,13.53
2018-08-19T21:00:21.420Z,15.17
2018-08-19T21:02:52.130Z,14.43
2018-08-19T21:05:23.575Z,15.70
2018-08-19T21:07:59.352Z,13.87
2018-08-19T21:10:30.677Z,13.97
2018-08-19T21:13:01.416Z,14.00
2018-08-19T21:15:37.156Z,13.67
2018-08-19T21:18:08.631Z,18.57
2018-08-19T21:20:39.881Z,13.67
2018-08-19T21:23:10.772Z,14.17
2018-08-19T21:25:47.442Z,14.57
2018-08-19T21:28:19.212Z,16.50
2018-08-19T21:30:50.118Z,13.80
2018-08-19T21:33:21.288Z,16.60
2018-08-19T21:35:53.591Z,14.67
2018-08-19T21:38:24.333Z,13.03
2018-08-19T21:40:56.987Z,15.60
2018-08-19T21:43:29.964Z,13.00
2018-08-19T21:46:01.694Z,14.07
2018-08-19T21:48:32.609Z,16.60
2018-08-19T21:51:03.389Z,13.37
2018-08-19T21:53:33.569Z,12.47
2018-08-19T21:56:04.390Z,15.63
2018-08-19T21:58:35.095Z,15.07
2018-08-19T22:01:10.268Z,16.70
2018-08-19T22:03:46.484Z,13.67
2018-08-19T22:06:17.399Z,14.97
2018-08-19T22:08:48.292Z,12.87
2018-08-19T22:11:18.968Z,12.77
2018-08-19T22:13:49.734Z,13.23
2018-08-19T22:16:20.675Z,12.40
2018-08-19T22:18:51.558Z,12.50
2018-08-19T22:21:24.234Z,14.80
2018-08-19T22:23:57.288Z,12.53
2018-08-19T22:26:28.460Z,17.90
2018-08-19T22:29:10.000Z,13.63
2018-08-19T22:31:41.089Z,13.63
2018-08-19T22:34:11.994Z,15.40
2018-08-19T22:36:43.014Z,13.10
2018-08-19T22:39:17.266Z,15.13
2018-08-19T22:41:51.020Z,14.70
2018-08-19T22:44:21.591Z,15.60
2018-08-19T22:46:52.549Z,15.33
2018-08-19T22:49:23.589Z,15.67
2018-08-19T22:51:55.289Z,16.47
2018-08-19T22:54:25.966Z,15.80
2018-08-19T22:56:57.116Z,14.10
2018-08-19T22:59:28.393Z,13.97
2018-08-19T23:01:59.427Z,18.77
2018-08-19T23:04:30.516Z,15.10
2018-08-19T23:07:01.596Z,14.43
2018-08-19T23:09:32.123Z,15.13
2018-08-19T23:12:03.117Z,16.37
2018-08-19T23:14:44.807Z,17.13
2018-08-19T23:17:15.728Z,16.30
2018-08-19T23:19:49.004Z,17.87
2018-08-19T23:22:20.006Z,19.20
2018-08-19T23:24:50.704Z,17.23
2018-08-19T23:27:21.403Z,18.10
2018-08-19T23:29:52.198Z,17.10
2018-08-19T23:32:23.080Z,19.83
2018-08-19T23:34:53.943Z,18.87
2018-08-19T23:37:25.011Z,17.80
2018-08-19T23:39:55.870Z,18.30
2018-08-19T23:42:26.013Z,19.73
2018-08-19T23:44:56.717Z,18.47
2018-08-19T23:47:27.387Z,19.40
2018-08-19T23:49:58.113Z,20.50
2018-08-19T23:52:28.795Z,15.67
2018-08-19T23:54:59.720Z,15.97
2018-08-19T23:57:30.494Z,16.13
